Aérodrome :
LOGIN :

S'inscrire | Disclaimer

   EN    FR    IT 

 










Légende :    VFR   VFR Marginal   IFR   IFR Intensif   IFR Très Intensif
Visi : 
Plafond : 
>= 8 km
>= 3000ft
5 à 8 km
1000 à 3000 ft
1500m à 5 km
500 à 1000 ft
800 à 1500m
200 à 500 ft
< 800m
< 200 ft
Symboles :   Orages  Brouillard  Fortes neiges  Fortes précipitations  Vent > 20 kt
SIGMETs :   Divers  Orages  Givrage  Turbulence  Onde Orograph.  Cendres Volcan.







- Altitude de l'aérodrome : 284 ft


EGUW - RAF Wattisham

DERNIER METAR :
  • 272350Z AUTO 32006KT 7000 BR BKN043/// SCT050/// 07/06 Q1015

METARs EXPIRÉS :
  • 272250Z AUTO 32004KT 5000 BR FEW044/// BKN070/// 06/05 Q1015
  • 272150Z 30005KT CAVOK 06/05 Q1015 BLU NOSIG

TAF TAF EGUW
Valide du 27 à 21h jusqu'au 28 à 01h UTC


271946Z 2721/2801 30008KT 9999 -RA SCT025
TEMPO 2721/2724 5000 SHRA BKN018TCU
PROB30
TEMPO 2721/2724 4000 DZ SCT008
Pas de NOTAMs connus pour ce terrain.



MET'MAP, la Météo Aéronautique d'un coup d'oeil ! - Copyright ORBIFLY Décembre 2007 - Disclaimer

ORBIFLY MET'MAP TEAM :

Programmation & Développement : Alexandra Zaïnal
Conception & Développement : Baudouin d'Aumeries
Co-Programmation & Développement : Marc-Olivier Méhu
Soutien technique & logistique : Manuel Goepfert

Contact : metmap@orbifly.com




SOURCES & CREDITS :

   NOAA